sensor_id;sensor_type;location;lat;lon;timestamp;temperature;humidity
5429;DHT22;2737;52.386;9.980;2023-04-24T00:01:28;12.40;99.90
5429;DHT22;2737;52.386;9.980;2023-04-24T00:03:55;12.30;99.90
5429;DHT22;2737;52.386;9.980;2023-04-24T00:06:25;12.20;99.90
5429;DHT22;2737;52.386;9.980;2023-04-24T00:08:59;12.20;99.90
5429;DHT22;2737;52.386;9.980;2023-04-24T00:11:26;12.20;99.90
5429;DHT22;2737;52.386;9.980;2023-04-24T00:13:53;12.20;99.90
5429;DHT22;2737;52.386;9.980;2023-04-24T00:16:20;12.20;99.90
5429;DHT22;2737;52.386;9.980;2023-04-24T00:18:48;12.10;99.90
5429;DHT22;2737;52.386;9.980;2023-04-24T00:21:18;12.10;99.90
5429;DHT22;2737;52.386;9.980;2023-04-24T00:23:45;12.10;99.90
5429;DHT22;2737;52.386;9.980;2023-04-24T00:26:12;12.10;99.90
5429;DHT22;2737;52.386;9.980;2023-04-24T00:28:39;12.10;99.90
5429;DHT22;2737;52.386;9.980;2023-04-24T00:31:06;12.00;99.90
5429;DHT22;2737;52.386;9.980;2023-04-24T00:33:33;12.00;99.90
5429;DHT22;2737;52.386;9.980;2023-04-24T00:36:01;12.00;99.90
5429;DHT22;2737;52.386;9.980;2023-04-24T00:38:28;12.00;99.90
5429;DHT22;2737;52.386;9.980;2023-04-24T00:40:55;12.00;99.90
5429;DHT22;2737;52.386;9.980;2023-04-24T00:43:22;12.00;99.90
5429;DHT22;2737;52.386;9.980;2023-04-24T00:45:50;12.00;99.90
5429;DHT22;2737;52.386;9.980;2023-04-24T00:48:17;12.00;99.90
5429;DHT22;2737;52.386;9.980;2023-04-24T00:50:45;12.00;99.90
5429;DHT22;2737;52.386;9.980;2023-04-24T00:53:13;11.90;99.90
5429;DHT22;2737;52.386;9.980;2023-04-24T00:55:41;11.90;99.90
5429;DHT22;2737;52.386;9.980;2023-04-24T00:58:08;11.90;99.90
5429;DHT22;2737;52.386;9.980;2023-04-24T01:00:35;11.90;99.90
5429;DHT22;2737;52.386;9.980;2023-04-24T01:03:04;11.90;99.90
5429;DHT22;2737;52.386;9.980;2023-04-24T01:05:33;11.80;99.90
5429;DHT22;2737;52.386;9.980;2023-04-24T01:08:01;11.70;99.90
5429;DHT22;2737;52.386;9.980;2023-04-24T01:10:29;11.70;99.90
5429;DHT22;2737;52.386;9.980;2023-04-24T01:12:58;11.70;99.90
5429;DHT22;2737;52.386;9.980;2023-04-24T01:15:25;11.60;99.90
5429;DHT22;2737;52.386;9.980;2023-04-24T01:17:52;11.60;99.90
5429;DHT22;2737;52.386;9.980;2023-04-24T01:20:20;11.60;99.90
5429;DHT22;2737;52.386;9.980;2023-04-24T01:22:48;11.60;99.90
5429;DHT22;2737;52.386;9.980;2023-04-24T01:25:15;11.60;99.90
5429;DHT22;2737;52.386;9.980;2023-04-24T01:27:43;11.50;99.90
5429;DHT22;2737;52.386;9.980;2023-04-24T01:30:11;11.50;99.90
5429;DHT22;2737;52.386;9.980;2023-04-24T01:32:39;11.50;99.90
5429;DHT22;2737;52.386;9.980;2023-04-24T01:35:07;11.60;99.90
5429;DHT22;2737;52.386;9.980;2023-04-24T01:37:34;11.60;99.90
5429;DHT22;2737;52.386;9.980;2023-04-24T01:40:05;11.50;99.90
5429;DHT22;2737;52.386;9.980;2023-04-24T01:42:33;11.50;99.90
5429;DHT22;2737;52.386;9.980;2023-04-24T01:45:02;11.50;99.90
5429;DHT22;2737;52.386;9.980;2023-04-24T01:47:31;11.50;99.90
5429;DHT22;2737;52.386;9.980;2023-04-24T01:49:58;11.50;99.90
5429;DHT22;2737;52.386;9.980;2023-04-24T01:52:25;11.40;99.90
5429;DHT22;2737;52.386;9.980;2023-04-24T01:54:54;11.40;99.90
5429;DHT22;2737;52.386;9.980;2023-04-24T01:57:23;11.40;99.90
5429;DHT22;2737;52.386;9.980;2023-04-24T01:59:51;11.40;99.90
5429;DHT22;2737;52.386;9.980;2023-04-24T02:02:18;11.30;99.90
5429;DHT22;2737;52.386;9.980;2023-04-24T02:04:46;11.30;99.90
5429;DHT22;2737;52.386;9.980;2023-04-24T02:07:13;11.30;99.90
5429;DHT22;2737;52.386;9.980;2023-04-24T02:09:40;11.30;99.90
5429;DHT22;2737;52.386;9.980;2023-04-24T02:12:07;11.20;99.90
5429;DHT22;2737;52.386;9.980;2023-04-24T02:14:36;11.20;99.90
5429;DHT22;2737;52.386;9.980;2023-04-24T02:17:03;11.20;99.90
5429;DHT22;2737;52.386;9.980;2023-04-24T02:19:30;11.20;99.90
5429;DHT22;2737;52.386;9.980;2023-04-24T02:21:57;11.10;99.90
5429;DHT22;2737;52.386;9.980;2023-04-24T02:24:24;11.10;99.90
5429;DHT22;2737;52.386;9.980;2023-04-24T02:26:51;11.10;99.90
5429;DHT22;2737;52.386;9.980;2023-04-24T02:29:18;11.00;99.90
5429;DHT22;2737;52.386;9.980;2023-04-24T02:31:47;11.00;99.90
5429;DHT22;2737;52.386;9.980;2023-04-24T02:34:14;11.00;99.90
5429;DHT22;2737;52.386;9.980;2023-04-24T02:36:41;11.00;99.90
5429;DHT22;2737;52.386;9.980;2023-04-24T02:39:08;10.90;99.90
5429;DHT22;2737;52.386;9.980;2023-04-24T02:41:36;10.90;99.90
5429;DHT22;2737;52.386;9.980;2023-04-24T02:44:03;10.90;99.90
5429;DHT22;2737;52.386;9.980;2023-04-24T02:46:30;10.80;99.90
5429;DHT22;2737;52.386;9.980;2023-04-24T02:48:58;10.80;99.90
5429;DHT22;2737;52.386;9.980;2023-04-24T02:51:25;10.80;99.90
5429;DHT22;2737;52.386;9.980;2023-04-24T02:53:52;10.80;99.90
5429;DHT22;2737;52.386;9.980;2023-04-24T02:56:19;10.70;99.90
5429;DHT22;2737;52.386;9.980;2023-04-24T02:58:46;10.70;99.90
5429;DHT22;2737;52.386;9.980;2023-04-24T03:01:13;10.80;99.90
5429;DHT22;2737;52.386;9.980;2023-04-24T03:03:40;10.80;99.90
5429;DHT22;2737;52.386;9.980;2023-04-24T03:06:09;10.80;99.90
5429;DHT22;2737;52.386;9.980;2023-04-24T03:08:36;10.80;99.90
5429;DHT22;2737;52.386;9.980;2023-04-24T03:11:03;10.70;99.90
5429;DHT22;2737;52.386;9.980;2023-04-24T03:13:30;10.70;99.90
5429;DHT22;2737;52.386;9.980;2023-04-24T03:15:57;10.70;99.90
5429;DHT22;2737;52.386;9.980;2023-04-24T03:18:25;10.70;99.90
5429;DHT22;2737;52.386;9.980;2023-04-24T03:20:52;10.70;99.90
5429;DHT22;2737;52.386;9.980;2023-04-24T03:23:20;10.70;99.90
5429;DHT22;2737;52.386;9.980;2023-04-24T03:25:47;10.60;99.90
5429;DHT22;2737;52.386;9.980;2023-04-24T03:28:14;10.60;99.90
5429;DHT22;2737;52.386;9.980;2023-04-24T03:30:41;10.60;99.90
5429;DHT22;2737;52.386;9.980;2023-04-24T03:33:08;10.50;99.90
5429;DHT22;2737;52.386;9.980;2023-04-24T03:35:35;10.60;99.90
5429;DHT22;2737;52.386;9.980;2023-04-24T03:38:02;10.60;99.90
5429;DHT22;2737;52.386;9.980;2023-04-24T03:40:32;10.60;99.90
5429;DHT22;2737;52.386;9.980;2023-04-24T03:42:59;10.50;99.90
5429;DHT22;2737;52.386;9.980;2023-04-24T03:45:26;10.60;99.90
5429;DHT22;2737;52.386;9.980;2023-04-24T03:47:53;10.50;99.90
5429;DHT22;2737;52.386;9.980;2023-04-24T03:50:20;10.50;99.90
5429;DHT22;2737;52.386;9.980;2023-04-24T03:52:47;10.50;99.90
5429;DHT22;2737;52.386;9.980;2023-04-24T03:55:14;10.40;99.90
5429;DHT22;2737;52.386;9.980;2023-04-24T03:57:43;10.40;99.90
5429;DHT22;2737;52.386;9.980;2023-04-24T04:00:11;10.40;99.90
5429;DHT22;2737;52.386;9.980;2023-04-24T04:02:39;10.40;99.90
5429;DHT22;2737;52.386;9.980;2023-04-24T04:05:07;10.30;99.90
5429;DHT22;2737;52.386;9.980;2023-04-24T04:07:34;10.30;99.90
5429;DHT22;2737;52.386;9.980;2023-04-24T04:10:01;10.30;99.90
5429;DHT22;2737;52.386;9.980;2023-04-24T04:12:29;10.20;99.90
5429;DHT22;2737;52.386;9.980;2023-04-24T04:14:57;10.20;99.90
5429;DHT22;2737;52.386;9.980;2023-04-24T04:17:24;10.20;99.90
5429;DHT22;2737;52.386;9.980;2023-04-24T04:19:51;10.10;99.90
5429;DHT22;2737;52.386;9.980;2023-04-24T04:22:18;10.10;99.90
5429;DHT22;2737;52.386;9.980;2023-04-24T04:24:45;10.00;99.90
5429;DHT22;2737;52.386;9.980;2023-04-24T04:27:12;10.00;99.90
5429;DHT22;2737;52.386;9.980;2023-04-24T04:29:42;10.00;99.90
5429;DHT22;2737;52.386;9.980;2023-04-24T04:32:10;10.00;99.90
5429;DHT22;2737;52.386;9.980;2023-04-24T04:34:38;9.90;99.90
5429;DHT22;2737;52.386;9.980;2023-04-24T04:37:05;10.00;99.90
5429;DHT22;2737;52.386;9.980;2023-04-24T04:39:32;9.90;99.90
5429;DHT22;2737;52.386;9.980;2023-04-24T04:41:59;9.90;99.90
5429;DHT22;2737;52.386;9.980;2023-04-24T04:44:26;9.90;99.90
5429;DHT22;2737;52.386;9.980;2023-04-24T04:46:54;9.80;99.90
5429;DHT22;2737;52.386;9.980;2023-04-24T04:49:23;9.80;99.90
5429;DHT22;2737;52.386;9.980;2023-04-24T04:51:50;9.80;99.90
5429;DHT22;2737;52.386;9.980;2023-04-24T04:54:17;9.70;99.90
5429;DHT22;2737;52.386;9.980;2023-04-24T04:56:44;9.70;99.90
5429;DHT22;2737;52.386;9.980;2023-04-24T04:59:11;9.70;99.90
5429;DHT22;2737;52.386;9.980;2023-04-24T05:01:38;9.60;99.90
5429;DHT22;2737;52.386;9.980;2023-04-24T05:04:05;9.70;99.90
5429;DHT22;2737;52.386;9.980;2023-04-24T05:06:34;9.70;99.90
5429;DHT22;2737;52.386;9.980;2023-04-24T05:09:01;9.80;99.90
5429;DHT22;2737;52.386;9.980;2023-04-24T05:11:29;9.90;99.90
5429;DHT22;2737;52.386;9.980;2023-04-24T05:13:56;10.00;99.90
5429;DHT22;2737;52.386;9.980;2023-04-24T05:16:23;10.10;99.90
5429;DHT22;2737;52.386;9.980;2023-04-24T05:18:50;10.10;99.90
5429;DHT22;2737;52.386;9.980;2023-04-24T05:21:17;10.10;99.90
5429;DHT22;2737;52.386;9.980;2023-04-24T05:23:45;10.10;99.90
5429;DHT22;2737;52.386;9.980;2023-04-24T05:26:13;10.10;99.90
5429;DHT22;2737;52.386;9.980;2023-04-24T05:28:41;10.10;99.90
5429;DHT22;2737;52.386;9.980;2023-04-24T05:31:08;10.20;99.90
5429;DHT22;2737;52.386;9.980;2023-04-24T05:33:35;10.20;99.90
5429;DHT22;2737;52.386;9.980;2023-04-24T05:36:02;10.20;99.90
5429;DHT22;2737;52.386;9.980;2023-04-24T05:38:31;10.20;99.90
5429;DHT22;2737;52.386;9.980;2023-04-24T05:40:59;10.30;99.90
5429;DHT22;2737;52.386;9.980;2023-04-24T05:43:26;10.40;99.90
5429;DHT22;2737;52.386;9.980;2023-04-24T05:45:53;10.40;99.90
5429;DHT22;2737;52.386;9.980;2023-04-24T05:48:20;10.40;99.90
5429;DHT22;2737;52.386;9.980;2023-04-24T05:50:49;10.50;99.90
5429;DHT22;2737;52.386;9.980;2023-04-24T05:53:16;10.50;99.90
5429;DHT22;2737;52.386;9.980;2023-04-24T05:55:43;10.50;99.90
5429;DHT22;2737;52.386;9.980;2023-04-24T05:58:12;10.70;99.90
5429;DHT22;2737;52.386;9.980;2023-04-24T06:00:39;10.70;99.90
5429;DHT22;2737;52.386;9.980;2023-04-24T06:03:08;10.80;99.90
5429;DHT22;2737;52.386;9.980;2023-04-24T06:05:35;10.90;99.90
5429;DHT22;2737;52.386;9.980;2023-04-24T06:08:02;11.10;99.90
5429;DHT22;2737;52.386;9.980;2023-04-24T06:10:29;11.20;99.90
5429;DHT22;2737;52.386;9.980;2023-04-24T06:12:56;11.30;99.90
5429;DHT22;2737;52.386;9.980;2023-04-24T06:15:28;11.30;99.90
5429;DHT22;2737;52.386;9.980;2023-04-24T06:17:56;11.30;99.90
5429;DHT22;2737;52.386;9.980;2023-04-24T06:20:23;11.30;99.90
5429;DHT22;2737;52.386;9.980;2023-04-24T06:22:50;11.30;99.90
5429;DHT22;2737;52.386;9.980;2023-04-24T06:25:17;11.40;99.90
5429;DHT22;2737;52.386;9.980;2023-04-24T06:27:44;11.30;99.90
5429;DHT22;2737;52.386;9.980;2023-04-24T06:30:12;11.30;99.90
5429;DHT22;2737;52.386;9.980;2023-04-24T06:32:41;11.40;99.90
5429;DHT22;2737;52.386;9.980;2023-04-24T06:35:08;11.30;99.90
5429;DHT22;2737;52.386;9.980;2023-04-24T06:37:37;11.30;99.90
5429;DHT22;2737;52.386;9.980;2023-04-24T06:40:05;11.20;99.90
5429;DHT22;2737;52.386;9.980;2023-04-24T06:42:32;11.10;99.90
5429;DHT22;2737;52.386;9.980;2023-04-24T06:45:00;11.00;99.90
5429;DHT22;2737;52.386;9.980;2023-04-24T06:47:27;10.90;99.90
5429;DHT22;2737;52.386;9.980;2023-04-24T06:49:56;10.90;99.90
5429;DHT22;2737;52.386;9.980;2023-04-24T06:52:23;10.90;99.90
5429;DHT22;2737;52.386;9.980;2023-04-24T06:54:50;10.90;99.90
5429;DHT22;2737;52.386;9.980;2023-04-24T06:57:17;11.00;99.90
5429;DHT22;2737;52.386;9.980;2023-04-24T06:59:44;11.00;99.90
5429;DHT22;2737;52.386;9.980;2023-04-24T07:02:11;11.20;99.90
5429;DHT22;2737;52.386;9.980;2023-04-24T07:04:38;11.20;99.90
5429;DHT22;2737;52.386;9.980;2023-04-24T07:07:07;11.30;99.90
5429;DHT22;2737;52.386;9.980;2023-04-24T07:09:35;11.30;99.90
5429;DHT22;2737;52.386;9.980;2023-04-24T07:12:04;11.30;99.90
5429;DHT22;2737;52.386;9.980;2023-04-24T07:14:32;11.30;99.90
5429;DHT22;2737;52.386;9.980;2023-04-24T07:17:00;11.30;99.90
5429;DHT22;2737;52.386;9.980;2023-04-24T07:19:27;11.40;99.90
5429;DHT22;2737;52.386;9.980;2023-04-24T07:21:54;11.40;99.90
5429;DHT22;2737;52.386;9.980;2023-04-24T07:24:22;11.50;99.90
5429;DHT22;2737;52.386;9.980;2023-04-24T07:26:51;11.50;99.90
5429;DHT22;2737;52.386;9.980;2023-04-24T07:29:18;11.50;99.90
5429;DHT22;2737;52.386;9.980;2023-04-24T07:31:45;11.50;99.90
5429;DHT22;2737;52.386;9.980;2023-04-24T07:34:12;11.50;99.90
5429;DHT22;2737;52.386;9.980;2023-04-24T07:36:40;11.40;99.90
5429;DHT22;2737;52.386;9.980;2023-04-24T07:39:08;11.50;99.90
5429;DHT22;2737;52.386;9.980;2023-04-24T07:41:36;11.50;99.90
5429;DHT22;2737;52.386;9.980;2023-04-24T07:44:03;11.60;99.90
5429;DHT22;2737;52.386;9.980;2023-04-24T07:46:30;11.60;99.90
5429;DHT22;2737;52.386;9.980;2023-04-24T07:48:57;11.50;99.90
5429;DHT22;2737;52.386;9.980;2023-04-24T07:51:26;11.40;99.90
5429;DHT22;2737;52.386;9.980;2023-04-24T07:53:54;11.40;99.90
5429;DHT22;2737;52.386;9.980;2023-04-24T07:56:21;11.60;99.90
5429;DHT22;2737;52.386;9.980;2023-04-24T07:58:49;11.90;99.90
5429;DHT22;2737;52.386;9.980;2023-04-24T08:01:16;12.20;99.90
5429;DHT22;2737;52.386;9.980;2023-04-24T08:03:43;12.30;99.90
5429;DHT22;2737;52.386;9.980;2023-04-24T08:06:10;12.40;99.90
5429;DHT22;2737;52.386;9.980;2023-04-24T08:08:38;12.30;99.90
5429;DHT22;2737;52.386;9.980;2023-04-24T08:11:05;12.30;99.90
5429;DHT22;2737;52.386;9.980;2023-04-24T08:13:32;12.40;99.90
5429;DHT22;2737;52.386;9.980;2023-04-24T08:16:00;12.70;99.90
5429;DHT22;2737;52.386;9.980;2023-04-24T08:18:27;12.90;99.90
5429;DHT22;2737;52.386;9.980;2023-04-24T08:20:54;13.10;99.90
5429;DHT22;2737;52.386;9.980;2023-04-24T08:23:21;13.10;99.90
5429;DHT22;2737;52.386;9.980;2023-04-24T08:25:49;13.40;99.90
5429;DHT22;2737;52.386;9.980;2023-04-24T08:28:16;13.30;99.90
5429;DHT22;2737;52.386;9.980;2023-04-24T08:30:45;13.30;99.90
5429;DHT22;2737;52.386;9.980;2023-04-24T08:33:14;13.00;99.90
5429;DHT22;2737;52.386;9.980;2023-04-24T08:35:41;13.00;99.90
5429;DHT22;2737;52.386;9.980;2023-04-24T08:38:08;13.20;99.90
5429;DHT22;2737;52.386;9.980;2023-04-24T08:40:37;13.40;99.90
5429;DHT22;2737;52.386;9.980;2023-04-24T08:43:05;13.50;99.90
5429;DHT22;2737;52.386;9.980;2023-04-24T08:45:33;13.30;99.90
5429;DHT22;2737;52.386;9.980;2023-04-24T08:48:00;12.90;99.90
5429;DHT22;2737;52.386;9.980;2023-04-24T08:50:29;12.80;99.90
5429;DHT22;2737;52.386;9.980;2023-04-24T08:52:56;12.90;99.90
5429;DHT22;2737;52.386;9.980;2023-04-24T08:55:25;13.20;99.90
5429;DHT22;2737;52.386;9.980;2023-04-24T08:57:53;13.50;99.90
5429;DHT22;2737;52.386;9.980;2023-04-24T09:00:21;13.50;99.90
5429;DHT22;2737;52.386;9.980;2023-04-24T09:02:49;13.30;99.90
5429;DHT22;2737;52.386;9.980;2023-04-24T09:05:17;13.40;99.90
5429;DHT22;2737;52.386;9.980;2023-04-24T09:07:49;13.50;99.90
5429;DHT22;2737;52.386;9.980;2023-04-24T09:10:16;13.50;99.90
5429;DHT22;2737;52.386;9.980;2023-04-24T09:12:44;13.50;99.90
5429;DHT22;2737;52.386;9.980;2023-04-24T09:15:12;13.60;99.90
5429;DHT22;2737;52.386;9.980;2023-04-24T09:17:39;13.40;99.90
5429;DHT22;2737;52.386;9.980;2023-04-24T09:20:07;13.10;99.90
5429;DHT22;2737;52.386;9.980;2023-04-24T09:22:34;12.90;99.90
5429;DHT22;2737;52.386;9.980;2023-04-24T09:25:05;12.90;99.90
5429;DHT22;2737;52.386;9.980;2023-04-24T09:27:33;12.80;99.90
5429;DHT22;2737;52.386;9.980;2023-04-24T09:30:00;12.80;99.90
5429;DHT22;2737;52.386;9.980;2023-04-24T09:32:27;12.90;99.90
5429;DHT22;2737;52.386;9.980;2023-04-24T09:35:09;12.70;99.90
5429;DHT22;2737;52.386;9.980;2023-04-24T09:37:37;12.50;99.90
5429;DHT22;2737;52.386;9.980;2023-04-24T09:40:14;12.50;99.90
5429;DHT22;2737;52.386;9.980;2023-04-24T09:42:44;13.00;99.90
5429;DHT22;2737;52.386;9.980;2023-04-24T09:45:12;13.20;99.90
5429;DHT22;2737;52.386;9.980;2023-04-24T09:47:39;13.10;99.90
5429;DHT22;2737;52.386;9.980;2023-04-24T09:50:11;12.80;99.90
5429;DHT22;2737;52.386;9.980;2023-04-24T09:52:46;12.80;99.90
5429;DHT22;2737;52.386;9.980;2023-04-24T09:55:19;12.80;99.90
5429;DHT22;2737;52.386;9.980;2023-04-24T09:57:50;12.90;99.90
5429;DHT22;2737;52.386;9.980;2023-04-24T10:00:24;13.20;99.90
5429;DHT22;2737;52.386;9.980;2023-04-24T10:02:56;13.50;99.90
5429;DHT22;2737;52.386;9.980;2023-04-24T10:05:24;13.60;99.90
5429;DHT22;2737;52.386;9.980;2023-04-24T10:07:56;13.60;99.90
5429;DHT22;2737;52.386;9.980;2023-04-24T10:10:25;13.40;99.90
5429;DHT22;2737;52.386;9.980;2023-04-24T10:12:53;13.40;99.90
5429;DHT22;2737;52.386;9.980;2023-04-24T10:15:21;13.20;99.90
5429;DHT22;2737;52.386;9.980;2023-04-24T10:17:48;13.00;99.90
5429;DHT22;2737;52.386;9.980;2023-04-24T10:20:19;12.80;99.90
5429;DHT22;2737;52.386;9.980;2023-04-24T10:22:49;12.70;99.90
5429;DHT22;2737;52.386;9.980;2023-04-24T10:25:19;12.60;99.90
5429;DHT22;2737;52.386;9.980;2023-04-24T10:27:49;12.60;99.90
5429;DHT22;2737;52.386;9.980;2023-04-24T10:30:17;12.70;99.90
5429;DHT22;2737;52.386;9.980;2023-04-24T10:32:44;12.70;99.90
5429;DHT22;2737;52.386;9.980;2023-04-24T10:35:13;12.80;99.90
5429;DHT22;2737;52.386;9.980;2023-04-24T10:37:43;12.70;99.90
5429;DHT22;2737;52.386;9.980;2023-04-24T10:40:12;13.00;99.90
5429;DHT22;2737;52.386;9.980;2023-04-24T10:42:42;13.20;99.90
5429;DHT22;2737;52.386;9.980;2023-04-24T10:45:18;13.40;99.90
5429;DHT22;2737;52.386;9.980;2023-04-24T10:48:08;13.50;99.90
5429;DHT22;2737;52.386;9.980;2023-04-24T10:50:43;13.50;99.90
5429;DHT22;2737;52.386;9.980;2023-04-24T10:53:13;13.50;99.90
5429;DHT22;2737;52.386;9.980;2023-04-24T10:55:46;13.40;99.90
5429;DHT22;2737;52.386;9.980;2023-04-24T10:58:13;13.20;99.90
5429;DHT22;2737;52.386;9.980;2023-04-24T11:00:44;13.20;99.90
5429;DHT22;2737;52.386;9.980;2023-04-24T11:03:25;13.00;99.90
5429;DHT22;2737;52.386;9.980;2023-04-24T11:05:57;12.70;99.90
5429;DHT22;2737;52.386;9.980;2023-04-24T11:08:27;12.70;99.90
5429;DHT22;2737;52.386;9.980;2023-04-24T11:10:59;12.70;99.90
5429;DHT22;2737;52.386;9.980;2023-04-24T11:13:27;12.80;99.90
5429;DHT22;2737;52.386;9.980;2023-04-24T11:16:15;12.90;99.90
5429;DHT22;2737;52.386;9.980;2023-04-24T11:18:50;12.70;99.90
5429;DHT22;2737;52.386;9.980;2023-04-24T11:21:20;12.70;99.90
5429;DHT22;2737;52.386;9.980;2023-04-24T11:23:48;12.60;99.90
5429;DHT22;2737;52.386;9.980;2023-04-24T11:26:18;12.60;99.90
5429;DHT22;2737;52.386;9.980;2023-04-24T11:28:49;12.60;99.90
5429;DHT22;2737;52.386;9.980;2023-04-24T11:31:37;12.50;99.90
5429;DHT22;2737;52.386;9.980;2023-04-24T11:34:09;12.10;99.90
5429;DHT22;2737;52.386;9.980;2023-04-24T11:36:36;11.90;99.90
5429;DHT22;2737;52.386;9.980;2023-04-24T11:39:03;11.80;99.90
5429;DHT22;2737;52.386;9.980;2023-04-24T11:41:31;11.70;99.90
5429;DHT22;2737;52.386;9.980;2023-04-24T11:43:58;11.70;99.90
5429;DHT22;2737;52.386;9.980;2023-04-24T11:46:28;11.80;99.90
5429;DHT22;2737;52.386;9.980;2023-04-24T11:48:58;12.00;99.90
5429;DHT22;2737;52.386;9.980;2023-04-24T11:51:27;12.20;99.90
5429;DHT22;2737;52.386;9.980;2023-04-24T11:53:54;12.30;99.90
5429;DHT22;2737;52.386;9.980;2023-04-24T11:56:22;12.30;99.90
5429;DHT22;2737;52.386;9.980;2023-04-24T11:58:52;12.40;99.90
5429;DHT22;2737;52.386;9.980;2023-04-24T12:01:19;12.30;99.90
5429;DHT22;2737;52.386;9.980;2023-04-24T12:03:48;12.30;99.90
5429;DHT22;2737;52.386;9.980;2023-04-24T12:06:18;12.20;99.90
5429;DHT22;2737;52.386;9.980;2023-04-24T12:08:48;12.20;99.90
5429;DHT22;2737;52.386;9.980;2023-04-24T12:11:16;12.30;99.90
5429;DHT22;2737;52.386;9.980;2023-04-24T12:13:46;12.40;99.90
5429;DHT22;2737;52.386;9.980;2023-04-24T12:16:13;12.40;99.90
5429;DHT22;2737;52.386;9.980;2023-04-24T12:18:44;12.60;99.90
5429;DHT22;2737;52.386;9.980;2023-04-24T12:21:17;12.90;99.90
5429;DHT22;2737;52.386;9.980;2023-04-24T12:23:44;13.00;99.90
5429;DHT22;2737;52.386;9.980;2023-04-24T12:26:11;13.10;99.90
5429;DHT22;2737;52.386;9.980;2023-04-24T12:28:39;13.20;99.90
5429;DHT22;2737;52.386;9.980;2023-04-24T12:31:07;13.10;99.90
5429;DHT22;2737;52.386;9.980;2023-04-24T12:33:35;12.90;99.90
5429;DHT22;2737;52.386;9.980;2023-04-24T12:36:03;12.90;99.90
5429;DHT22;2737;52.386;9.980;2023-04-24T12:38:32;12.70;99.90
5429;DHT22;2737;52.386;9.980;2023-04-24T12:41:06;12.50;99.90
5429;DHT22;2737;52.386;9.980;2023-04-24T12:43:34;12.10;99.90
5429;DHT22;2737;52.386;9.980;2023-04-24T12:46:01;11.90;99.90
5429;DHT22;2737;52.386;9.980;2023-04-24T12:48:29;11.80;99.90
5429;DHT22;2737;52.386;9.980;2023-04-24T12:50:57;11.80;99.90
5429;DHT22;2737;52.386;9.980;2023-04-24T12:53:27;11.70;99.90
5429;DHT22;2737;52.386;9.980;2023-04-24T12:55:57;11.40;99.90
5429;DHT22;2737;52.386;9.980;2023-04-24T12:58:24;11.50;99.90
5429;DHT22;2737;52.386;9.980;2023-04-24T13:00:51;11.60;99.90
5429;DHT22;2737;52.386;9.980;2023-04-24T13:03:18;11.80;99.90
5429;DHT22;2737;52.386;9.980;2023-04-24T13:05:48;12.10;99.90
5429;DHT22;2737;52.386;9.980;2023-04-24T13:08:15;12.40;99.90
5429;DHT22;2737;52.386;9.980;2023-04-24T13:10:42;12.60;99.90
5429;DHT22;2737;52.386;9.980;2023-04-24T13:13:10;12.70;99.90
5429;DHT22;2737;52.386;9.980;2023-04-24T13:15:37;12.70;99.90
5429;DHT22;2737;52.386;9.980;2023-04-24T13:18:04;12.50;99.90
5429;DHT22;2737;52.386;9.980;2023-04-24T13:20:31;12.30;99.90
5429;DHT22;2737;52.386;9.980;2023-04-24T13:23:01;12.00;99.90
5429;DHT22;2737;52.386;9.980;2023-04-24T13:25:28;11.80;99.90
5429;DHT22;2737;52.386;9.980;2023-04-24T13:27:55;11.60;99.90
5429;DHT22;2737;52.386;9.980;2023-04-24T13:30:23;11.50;99.90
5429;DHT22;2737;52.386;9.980;2023-04-24T13:32:50;11.40;99.90
5429;DHT22;2737;52.386;9.980;2023-04-24T13:35:17;11.20;99.90
5429;DHT22;2737;52.386;9.980;2023-04-24T13:37:44;11.00;99.90
5429;DHT22;2737;52.386;9.980;2023-04-24T13:40:11;10.90;99.90
5429;DHT22;2737;52.386;9.980;2023-04-24T13:42:38;10.90;99.90
5429;DHT22;2737;52.386;9.980;2023-04-24T13:45:06;10.90;99.90
5429;DHT22;2737;52.386;9.980;2023-04-24T13:47:35;11.00;99.90
5429;DHT22;2737;52.386;9.980;2023-04-24T13:50:02;11.00;99.90
5429;DHT22;2737;52.386;9.980;2023-04-24T13:52:29;11.00;99.90
5429;DHT22;2737;52.386;9.980;2023-04-24T13:54:56;10.90;99.90
5429;DHT22;2737;52.386;9.980;2023-04-24T13:57:23;10.90;99.90
5429;DHT22;2737;52.386;9.980;2023-04-24T13:59:50;10.70;99.90
5429;DHT22;2737;52.386;9.980;2023-04-24T14:02:17;10.60;99.90
5429;DHT22;2737;52.386;9.980;2023-04-24T14:04:45;10.50;99.90
5429;DHT22;2737;52.386;9.980;2023-04-24T14:07:13;10.40;99.90
5429;DHT22;2737;52.386;9.980;2023-04-24T14:09:41;10.10;99.90
5429;DHT22;2737;52.386;9.980;2023-04-24T14:12:08;10.00;99.90
5429;DHT22;2737;52.386;9.980;2023-04-24T14:14:35;9.90;99.90
5429;DHT22;2737;52.386;9.980;2023-04-24T14:17:02;9.80;99.90
5429;DHT22;2737;52.386;9.980;2023-04-24T14:19:29;9.60;99.90
5429;DHT22;2737;52.386;9.980;2023-04-24T14:21:57;9.40;99.90
5429;DHT22;2737;52.386;9.980;2023-04-24T14:24:24;9.40;99.90
5429;DHT22;2737;52.386;9.980;2023-04-24T14:26:52;9.30;99.90
5429;DHT22;2737;52.386;9.980;2023-04-24T14:29:19;9.20;99.90
5429;DHT22;2737;52.386;9.980;2023-04-24T14:31:46;9.30;99.90
5429;DHT22;2737;52.386;9.980;2023-04-24T14:34:13;9.40;99.90
5429;DHT22;2737;52.386;9.980;2023-04-24T14:36:41;9.40;99.90
5429;DHT22;2737;52.386;9.980;2023-04-24T14:39:09;9.40;99.90
5429;DHT22;2737;52.386;9.980;2023-04-24T14:41:37;9.40;99.90
5429;DHT22;2737;52.386;9.980;2023-04-24T14:44:04;9.30;99.90
5429;DHT22;2737;52.386;9.980;2023-04-24T14:46:31;9.10;99.90
5429;DHT22;2737;52.386;9.980;2023-04-24T14:48:58;9.10;99.90
5429;DHT22;2737;52.386;9.980;2023-04-24T14:51:25;9.10;99.90
5429;DHT22;2737;52.386;9.980;2023-04-24T14:53:53;9.00;99.90
5429;DHT22;2737;52.386;9.980;2023-04-24T14:56:21;9.00;99.90
5429;DHT22;2737;52.386;9.980;2023-04-24T14:58:48;8.90;99.90
5429;DHT22;2737;52.386;9.980;2023-04-24T15:01:15;8.90;99.90
5429;DHT22;2737;52.386;9.980;2023-04-24T15:03:43;8.80;99.90
5429;DHT22;2737;52.386;9.980;2023-04-24T15:06:11;8.90;99.90
5429;DHT22;2737;52.386;9.980;2023-04-24T15:08:38;9.00;99.90
5429;DHT22;2737;52.386;9.980;2023-04-24T15:11:05;8.90;99.90
5429;DHT22;2737;52.386;9.980;2023-04-24T15:13:33;8.90;99.90
5429;DHT22;2737;52.386;9.980;2023-04-24T15:16:00;8.90;99.90
5429;DHT22;2737;52.386;9.980;2023-04-24T15:18:28;8.90;99.90
5429;DHT22;2737;52.386;9.980;2023-04-24T15:20:55;8.80;99.90
5429;DHT22;2737;52.386;9.980;2023-04-24T15:23:22;8.80;99.90
5429;DHT22;2737;52.386;9.980;2023-04-24T15:25:49;8.90;99.90
5429;DHT22;2737;52.386;9.980;2023-04-24T15:28:16;8.90;99.90
5429;DHT22;2737;52.386;9.980;2023-04-24T15:30:44;8.80;99.90
5429;DHT22;2737;52.386;9.980;2023-04-24T15:33:11;8.90;99.90
5429;DHT22;2737;52.386;9.980;2023-04-24T15:35:38;8.80;99.90
5429;DHT22;2737;52.386;9.980;2023-04-24T15:38:06;8.70;99.90
5429;DHT22;2737;52.386;9.980;2023-04-24T15:40:33;8.70;99.90
5429;DHT22;2737;52.386;9.980;2023-04-24T15:43:00;8.80;99.90
5429;DHT22;2737;52.386;9.980;2023-04-24T15:45:27;8.90;99.90
5429;DHT22;2737;52.386;9.980;2023-04-24T15:47:57;9.10;99.90
5429;DHT22;2737;52.386;9.980;2023-04-24T15:50:24;9.20;99.90
5429;DHT22;2737;52.386;9.980;2023-04-24T15:52:52;9.20;99.90
5429;DHT22;2737;52.386;9.980;2023-04-24T15:55:19;9.20;99.90
5429;DHT22;2737;52.386;9.980;2023-04-24T15:57:46;9.20;99.90
5429;DHT22;2737;52.386;9.980;2023-04-24T16:00:14;9.20;99.90
5429;DHT22;2737;52.386;9.980;2023-04-24T16:02:41;9.20;99.90
5429;DHT22;2737;52.386;9.980;2023-04-24T16:05:09;9.20;99.90
5429;DHT22;2737;52.386;9.980;2023-04-24T16:07:37;9.30;99.90
5429;DHT22;2737;52.386;9.980;2023-04-24T16:10:05;9.30;99.90